Time;durP1;ratioP1;P1;durP2;ratioP2;P2;SDS_P1;SDS_P2;PMS_P1;PMS_P2;Temp;Humidity;BMP_temperature;BMP_pressure;BME280_temperature;BME280_humidity;BME280_pressure;Samples;Min_cycle;Max_cycle;Signal;HPM_P1;HPM_P2
2022/04/16 00:01:34;;;;;;;;;;;;;;;5.21;83.45;98602.22;4936409;29;19938;-61
2022/04/16 00:04:00;;;;;;;;;;;;;;;5.18;83.07;98602.69;4938338;29;19926;-61
2022/04/16 00:06:26;;;;;;;;;;;;;;;5.16;83.13;98602.09;4946739;29;19937;-62
2022/04/16 00:08:51;;;;;;;;;;;;;;;5.13;84.46;98602.53;4957549;29;20372;-63
2022/04/16 00:11:17;;;;;;;;;;;;;;;5.08;83.50;98607.63;4940084;29;20071;-62
2022/04/16 00:13:42;;;;;;;;;;;;;;;5.00;84.23;98606.13;4957443;29;19934;-62
2022/04/16 00:16:09;;;;;;;;;;;;;;;5.00;84.33;98605.34;4953223;29;20304;-62
2022/04/16 00:18:34;;;;;;;;;;;;;;;5.01;83.45;98605.09;4938122;29;20385;-63
2022/04/16 00:21:04;;;;;;;;;;;;;;;4.94;83.48;98601.75;4936938;29;19938;-62
2022/04/16 00:23:30;;;;;;;;;;;;;;;4.94;84.16;98604.38;4938184;29;19926;-61
2022/04/16 00:25:56;;;;;;;;;;;;;;;4.89;84.59;98606.84;4949526;29;19930;-62
2022/04/16 00:28:22;;;;;;;;;;;;;;;4.85;84.51;98603.03;4939254;29;19926;-61
2022/04/16 00:30:47;;;;;;;;;;;;;;;4.83;84.71;98607.75;4940026;29;20319;-62
2022/04/16 00:33:13;;;;;;;;;;;;;;;4.80;85.29;98608.19;4939776;29;20407;-62
2022/04/16 00:35:39;;;;;;;;;;;;;;;4.72;84.99;98613.72;4931957;29;19977;-62
2022/04/16 00:38:05;;;;;;;;;;;;;;;4.70;85.64;98607.88;4920638;29;20317;-62
2022/04/16 00:40:31;;;;;;;;;;;;;;;4.69;84.76;98614.16;4920484;29;19931;-61
2022/04/16 00:42:57;;;;;;;;;;;;;;;4.65;84.80;98610.38;4937677;29;20411;-62
2022/04/16 00:45:23;;;;;;;;;;;;;;;4.62;84.71;98614.22;4937642;29;19937;-61
2022/04/16 00:47:48;;;;;;;;;;;;;;;4.67;84.21;98614.34;4940640;29;19926;-62
2022/04/16 00:50:14;;;;;;;;;;;;;;;4.66;84.02;98623.25;4956764;29;19957;-62
2022/04/16 00:52:39;;;;;;;;;;;;;;;4.60;84.28;98631.19;4956688;29;20269;-61
2022/04/16 00:55:06;;;;;;;;;;;;;;;4.57;84.34;98621.13;4945816;29;19931;-63
2022/04/16 00:57:32;;;;;;;;;;;;;;;4.40;84.52;98634.00;4937272;29;19927;-61
2022/04/16 00:59:59;;;;;;;;;;;;;;;4.33;84.17;98636.69;4937465;29;19935;-63
2022/04/16 01:02:25;;;;;;;;;;;;;;;4.30;84.54;98629.25;4920155;29;20289;-61
2022/04/16 01:04:50;;;;;;;;;;;;;;;4.16;84.15;98625.13;4937242;29;19938;-62
2022/04/16 01:07:22;;;;;;;;;;;;;;;4.10;84.06;98650.41;4935846;29;20002;-61
2022/04/16 01:09:48;;;;;;;;;;;;;;;4.06;84.05;98643.97;4937505;29;20447;-62
2022/04/16 01:12:14;;;;;;;;;;;;;;;3.92;84.43;98631.97;4936519;29;20026;-63
2022/04/16 01:14:39;;;;;;;;;;;;;;;3.87;84.71;98630.78;4950429;29;20029;-62
2022/04/16 01:17:05;;;;;;;;;;;;;;;3.73;84.40;98637.13;4939114;29;20033;-62
2022/04/16 01:19:30;;;;;;;;;;;;;;;3.71;84.25;98641.78;4956483;29;20330;-63
2022/04/16 01:21:56;;;;;;;;;;;;;;;3.62;83.58;98636.00;4953703;29;19935;-62
2022/04/16 01:24:21;;;;;;;;;;;;;;;3.52;84.66;98640.88;4937124;29;19927;-61
2022/04/16 01:26:48;;;;;;;;;;;;;;;3.51;84.41;98636.66;4936758;29;20393;-61
2022/04/16 01:29:14;;;;;;;;;;;;;;;3.42;84.06;98643.16;4937028;29;20304;-61
2022/04/16 01:31:39;;;;;;;;;;;;;;;3.35;84.11;98642.34;4935726;29;19937;-62
2022/04/16 01:34:05;;;;;;;;;;;;;;;3.35;83.78;98653.66;4937652;29;19927;-61
2022/04/16 01:36:31;;;;;;;;;;;;;;;3.27;84.04;98642.63;4936480;29;20014;-62
2022/04/16 01:38:57;;;;;;;;;;;;;;;3.22;83.93;98642.44;4936822;29;19954;-61
2022/04/16 01:41:27;;;;;;;;;;;;;;;3.14;83.88;98654.72;4940315;29;20120;-62
2022/04/16 01:43:53;;;;;;;;;;;;;;;3.12;83.54;98653.34;4938701;29;20013;-61
2022/04/16 01:46:19;;;;;;;;;;;;;;;3.04;82.58;98658.81;4938608;29;20414;-61
2022/04/16 01:48:45;;;;;;;;;;;;;;;3.01;83.08;98654.78;4938567;29;20020;-62
2022/04/16 01:51:10;;;;;;;;;;;;;;;3.02;82.68;98663.44;4937206;29;20343;-61
2022/04/16 01:53:36;;;;;;;;;;;;;;;2.97;82.21;98664.03;4936240;29;20082;-62
2022/04/16 01:56:01;;;;;;;;;;;;;;;2.99;82.22;98663.84;4937610;29;19930;-61
2022/04/16 01:58:27;;;;;;;;;;;;;;;2.85;82.65;98666.50;4955287;29;20117;-62
2022/04/16 02:00:52;;;;;;;;;;;;;;;2.87;82.53;98663.69;4955152;29;19937;-61
2022/04/16 02:03:20;;;;;;;;;;;;;;;2.81;82.19;98661.88;4955498;29;19937;-62
2022/04/16 02:05:46;;;;;;;;;;;;;;;2.81;82.45;98659.28;4955122;29;19931;-60
2022/04/16 02:08:12;;;;;;;;;;;;;;;2.79;82.01;98658.66;4955104;29;19926;-60
2022/04/16 02:10:37;;;;;;;;;;;;;;;2.78;82.25;98657.88;4933673;29;20412;-61
2022/04/16 02:13:03;;;;;;;;;;;;;;;2.66;81.72;98683.06;4936010;29;19978;-61
2022/04/16 02:15:29;;;;;;;;;;;;;;;2.61;81.06;98670.56;4918666;29;19930;-61
2022/04/16 02:17:56;;;;;;;;;;;;;;;2.46;81.74;98677.84;4935833;29;19993;-61
2022/04/16 02:20:23;;;;;;;;;;;;;;;2.46;81.94;98669.97;4929670;29;20024;-62
2022/04/16 02:22:48;;;;;;;;;;;;;;;2.33;82.13;98681.25;4954123;28;20047;-60
2022/04/16 02:25:14;;;;;;;;;;;;;;;2.31;82.18;98672.81;4937331;29;19960;-61
2022/04/16 02:27:40;;;;;;;;;;;;;;;2.27;82.63;98676.84;4937329;29;20097;-60
2022/04/16 02:30:13;;;;;;;;;;;;;;;2.35;82.70;98678.44;4936326;29;20022;-62
2022/04/16 02:32:39;;;;;;;;;;;;;;;2.30;81.57;98689.50;4918309;29;19926;-61
2022/04/16 02:35:07;;;;;;;;;;;;;;;2.27;82.10;98687.31;4934256;29;19931;-61
2022/04/16 02:37:33;;;;;;;;;;;;;;;2.18;82.34;98685.88;4938122;29;19956;-61
2022/04/16 02:39:59;;;;;;;;;;;;;;;2.20;81.82;98689.09;4954740;29;19930;-61
2022/04/16 02:42:25;;;;;;;;;;;;;;;2.14;81.93;98684.66;4954277;29;19966;-61
2022/04/16 02:47:34;;;;;;;;;;;;;;;2.10;81.96;98683.47;4954431;29;20388;-62
2022/04/16 02:50:00;;;;;;;;;;;;;;;2.11;82.01;98698.94;4941719;29;19938;-62
2022/04/16 02:52:25;;;;;;;;;;;;;;;2.17;82.45;98687.69;4934123;29;20029;-61
2022/04/16 02:54:52;;;;;;;;;;;;;;;2.11;82.04;98687.69;4935374;29;20588;-62
2022/04/16 02:57:18;;;;;;;;;;;;;;;2.13;81.78;98696.94;4936003;29;19958;-61
2022/04/16 02:59:46;;;;;;;;;;;;;;;2.10;82.41;98701.75;4937328;29;19992;-61
2022/04/16 03:02:12;;;;;;;;;;;;;;;2.13;81.57;98699.56;4954333;29;19934;-61
2022/04/16 03:04:38;;;;;;;;;;;;;;;2.13;81.81;98693.53;4954507;29;19985;-62
2022/04/16 03:07:03;;;;;;;;;;;;;;;2.14;81.83;98711.59;4954028;29;19995;-62
2022/04/16 03:09:29;;;;;;;;;;;;;;;2.16;81.82;98700.97;4937885;29;19922;-62
2022/04/16 03:11:55;;;;;;;;;;;;;;;2.20;80.99;98705.56;4917995;29;20389;-62
2022/04/16 03:17:33;;;;;;;;;;;;;;;2.03;81.29;98704.38;4924086;29;19931;-63
2022/04/16 03:19:59;;;;;;;;;;;;;;;2.03;81.58;98707.78;4934780;29;20037;-61
2022/04/16 03:22:25;;;;;;;;;;;;;;;1.98;81.51;98710.19;4934872;29;19926;-63
2022/04/16 03:24:51;;;;;;;;;;;;;;;1.91;81.45;98712.00;4935708;29;19942;-62
2022/04/16 03:27:16;;;;;;;;;;;;;;;1.94;81.52;98716.00;4917882;29;19937;-61
2022/04/16 03:29:42;;;;;;;;;;;;;;;1.97;81.39;98711.19;4935157;29;19927;-62
2022/04/16 03:32:07;;;;;;;;;;;;;;;1.98;81.80;98722.47;4934610;29;20405;-62
2022/04/16 03:34:33;;;;;;;;;;;;;;;1.98;81.24;98719.84;4948530;28;19965;-62
2022/04/16 03:36:58;;;;;;;;;;;;;;;2.07;81.27;98720.47;4953882;29;19977;-61
2022/04/16 03:39:24;;;;;;;;;;;;;;;2.07;81.07;98741.38;4954217;29;19957;-62
2022/04/16 03:41:49;;;;;;;;;;;;;;;1.99;81.23;98732.69;4936503;29;19930;-61
2022/04/16 03:44:15;;;;;;;;;;;;;;;1.99;80.75;98743.16;4952603;29;20030;-61
2022/04/16 03:46:41;;;;;;;;;;;;;;;1.99;81.29;98730.09;4917856;29;19937;-61
2022/04/16 03:49:06;;;;;;;;;;;;;;;2.01;81.26;98725.47;4934878;29;19926;-62
2022/04/16 03:51:32;;;;;;;;;;;;;;;1.98;81.19;98736.31;4933536;29;19934;-62
2022/04/16 03:59:59;;;;;;;;;;;;;;;1.89;81.04;98736.72;4934359;29;19937;-62
2022/04/16 04:02:11;;;;;;;;;;;;;;;1.99;80.85;98742.34;4953551;29;19988;-62
2022/04/16 04:04:37;;;;;;;;;;;;;;;1.92;80.96;98752.81;4952441;29;19954;-62
2022/04/16 04:07:02;;;;;;;;;;;;;;;1.89;80.80;98747.16;4951723;29;20415;-61
2022/04/16 04:09:28;;;;;;;;;;;;;;;1.91;80.79;98743.34;4953459;29;20463;-61
2022/04/16 04:11:53;;;;;;;;;;;;;;;1.93;81.26;98759.63;4953328;29;20411;-63
2022/04/16 04:14:19;;;;;;;;;;;;;;;1.94;80.61;98749.97;4934554;29;20025;-63
2022/04/16 04:16:44;;;;;;;;;;;;;;;1.93;81.01;98759.63;4920306;29;20404;-64
2022/04/16 04:19:10;;;;;;;;;;;;;;;1.95;81.03;98762.84;4953703;29;20036;-62
2022/04/16 04:21:36;;;;;;;;;;;;;;;1.95;80.89;98777.75;4936459;29;19930;-63
2022/04/16 04:24:01;;;;;;;;;;;;;;;1.90;80.57;98752.19;4940851;29;19927;-63
2022/04/16 04:26:27;;;;;;;;;;;;;;;1.92;80.16;98760.63;4932909;29;19935;-62
2022/04/16 04:28:54;;;;;;;;;;;;;;;1.95;80.88;98767.28;4944253;29;19926;-61
2022/04/16 04:31:19;;;;;;;;;;;;;;;2.00;80.59;98770.94;4935812;29;20447;-62
2022/04/16 04:33:45;;;;;;;;;;;;;;;2.03;80.21;98781.00;4936193;29;19930;-64
2022/04/16 04:36:11;;;;;;;;;;;;;;;2.02;80.01;98771.50;4953077;29;19954;-62
2022/04/16 04:38:36;;;;;;;;;;;;;;;2.12;80.00;98771.16;4934586;29;20384;-62
2022/04/16 04:41:04;;;;;;;;;;;;;;;1.95;79.71;98780.34;4953335;29;20033;-62
2022/04/16 04:43:29;;;;;;;;;;;;;;;1.94;80.25;98784.78;4937744;29;20025;-63
2022/04/16 04:45:55;;;;;;;;;;;;;;;2.02;80.28;98779.34;4933999;29;20405;-63
2022/04/16 04:48:20;;;;;;;;;;;;;;;2.08;79.85;98787.41;4919562;29;20025;-62
2022/04/16 04:50:46;;;;;;;;;;;;;;;2.08;79.65;98797.88;4921186;29;19935;-62
2022/04/16 04:53:12;;;;;;;;;;;;;;;2.05;79.27;98780.78;4937376;29;19977;-63
2022/04/16 04:55:37;;;;;;;;;;;;;;;2.06;79.97;98790.25;4937139;29;19935;-63
2022/04/16 04:58:03;;;;;;;;;;;;;;;1.98;79.99;98799.06;4937167;29;19934;-62
2022/04/16 05:00:29;;;;;;;;;;;;;;;2.04;79.43;98816.56;4937149;29;19931;-62
2022/04/16 05:02:54;;;;;;;;;;;;;;;1.96;79.92;98797.63;4937879;29;19923;-62
2022/04/16 05:05:20;;;;;;;;;;;;;;;2.05;79.86;98793.84;4935887;29;19931;-61
2022/04/16 05:07:45;;;;;;;;;;;;;;;2.08;79.20;98811.75;4919820;29;19927;-63
2022/04/16 05:10:11;;;;;;;;;;;;;;;2.01;79.83;98795.25;4943077;29;19974;-63
2022/04/16 05:12:36;;;;;;;;;;;;;;;1.97;79.30;98817.53;4938991;29;20412;-61
2022/04/16 05:15:02;;;;;;;;;;;;;;;1.89;79.49;98802.84;4956002;29;19964;-62
2022/04/16 05:17:30;;;;;;;;;;;;;;;1.95;80.12;98841.28;4939203;29;19952;-64
2022/04/16 05:19:55;;;;;;;;;;;;;;;1.92;80.00;98810.31;4954957;29;19934;-62
2022/04/16 05:22:21;;;;;;;;;;;;;;;1.96;80.00;98811.50;4923759;29;19933;-63
2022/04/16 05:24:46;;;;;;;;;;;;;;;1.93;nan;98809.28;4937164;29;19927;-63
2022/04/16 05:27:12;;;;;;;;;;;;;;;1.93;80.28;98822.34;4936841;29;19931;-63
2022/04/16 05:29:56;;;;;;;;;;;;;;;1.88;80.27;98806.44;4937850;29;19954;-64
2022/04/16 05:32:23;;;;;;;;;;;;;;;1.83;80.34;98835.00;4936746;29;19978;-62
2022/04/16 05:34:48;;;;;;;;;;;;;;;1.85;80.92;98824.34;4935226;29;20404;-61
2022/04/16 05:37:14;;;;;;;;;;;;;;;1.79;81.30;98831.13;4936709;29;19937;-62
2022/04/16 05:39:40;;;;;;;;;;;;;;;1.75;81.55;98819.47;4920318;29;19926;-63
2022/04/16 05:42:06;;;;;;;;;;;;;;;1.78;81.58;98813.84;4936442;29;20404;-64
2022/04/16 05:44:33;;;;;;;;;;;;;;;1.78;81.56;98834.75;4936856;29;20431;-62
2022/04/16 05:46:58;;;;;;;;;;;;;;;1.82;81.87;98804.63;4935036;29;19935;-64
2022/04/16 05:49:24;;;;;;;;;;;;;;;1.91;81.43;98810.47;4950177;29;19933;-63
2022/04/16 05:51:49;;;;;;;;;;;;;;;1.92;80.22;98806.88;4948589;29;20404;-61
2022/04/16 05:54:15;;;;;;;;;;;;;;;1.88;82.23;98816.09;4936377;29;19927;-66
2022/04/16 05:56:40;;;;;;;;;;;;;;;1.87;81.52;98833.59;4937388;29;19930;-61
2022/04/16 05:59:06;;;;;;;;;;;;;;;1.74;81.50;98839.56;4937238;29;19927;-64
2022/04/16 06:01:31;;;;;;;;;;;;;;;1.68;81.83;98836.94;4954286;29;20077;-61
2022/04/16 06:03:57;;;;;;;;;;;;;;;1.79;82.11;98823.31;4940290;29;20335;-61
2022/04/16 06:06:22;;;;;;;;;;;;;;;1.84;81.54;98856.72;4936032;29;19937;-63
2022/04/16 06:08:48;;;;;;;;;;;;;;;1.88;81.67;98829.97;4926190;29;19930;-65
2022/04/16 06:11:17;;;;;;;;;;;;;;;1.95;81.15;98841.28;4953655;29;19930;-69
2022/04/16 06:13:42;;;;;;;;;;;;;;;2.08;81.53;98824.03;4947587;29;20344;-68
2022/04/16 06:16:09;;;;;;;;;;;;;;;2.12;80.19;98826.06;4934864;29;19935;-65
2022/04/16 06:18:35;;;;;;;;;;;;;;;2.13;81.08;98829.47;4942399;29;19958;-64
2022/04/16 06:21:00;;;;;;;;;;;;;;;2.13;80.35;98864.28;4954854;29;19930;-65
2022/04/16 06:23:26;;;;;;;;;;;;;;;2.00;80.55;98844.13;4955011;29;19927;-64
2022/04/16 06:25:51;;;;;;;;;;;;;;;2.08;80.71;98832.66;4954706;29;19934;-64
2022/04/16 06:28:17;;;;;;;;;;;;;;;2.21;80.57;98842.38;4954845;29;20149;-62
2022/04/16 06:30:42;;;;;;;;;;;;;;;2.30;79.43;98838.59;4950801;29;19937;-63
2022/04/16 06:33:08;;;;;;;;;;;;;;;2.21;79.91;98824.88;4954731;29;19923;-65
2022/04/16 06:35:34;;;;;;;;;;;;;;;2.24;80.28;98837.56;4921540;29;19930;-64
2022/04/16 06:37:59;;;;;;;;;;;;;;;2.20;80.66;98849.41;4954786;28;19926;-64
2022/04/16 06:40:25;;;;;;;;;;;;;;;2.17;79.63;98835.91;4954733;29;20089;-64
2022/04/16 06:42:52;;;;;;;;;;;;;;;2.20;78.99;98865.09;4954211;29;19958;-63
2022/04/16 06:45:21;;;;;;;;;;;;;;;2.14;79.28;98846.78;4949469;29;20440;-62
2022/04/16 06:47:46;;;;;;;;;;;;;;;2.11;79.08;98862.84;4944437;29;20038;-62
2022/04/16 06:50:12;;;;;;;;;;;;;;;2.07;80.25;98859.03;4935479;29;20029;-64
2022/04/16 06:52:37;;;;;;;;;;;;;;;2.07;79.17;98877.31;4954187;29;19931;-63
2022/04/16 06:55:06;;;;;;;;;;;;;;;2.03;79.48;98872.47;4953839;29;19930;-61
2022/04/16 06:57:32;;;;;;;;;;;;;;;2.04;79.55;98861.00;4936217;29;19927;-63
2022/04/16 06:59:57;;;;;;;;;;;;;;;1.99;79.66;98866.00;4951825;29;19935;-63
2022/04/16 07:02:23;;;;;;;;;;;;;;;2.09;79.23;98877.91;4931612;29;19933;-60
2022/04/16 07:04:49;;;;;;;;;;;;;;;2.03;79.35;98898.63;4935421;29;19927;-62
2022/04/16 07:07:15;;;;;;;;;;;;;;;2.01;79.34;98873.69;4934224;29;19946;-62
2022/04/16 07:09:41;;;;;;;;;;;;;;;2.09;79.77;98894.44;4933616;29;19926;-62
2022/04/16 07:12:07;;;;;;;;;;;;;;;2.07;nan;98893.00;4934907;29;19931;-63
2022/04/16 07:14:33;;;;;;;;;;;;;;;2.07;79.16;98914.72;4936834;29;20288;-61
2022/04/16 07:17:00;;;;;;;;;;;;;;;2.12;78.76;98911.50;4932867;29;19938;-61
2022/04/16 07:19:26;;;;;;;;;;;;;;;2.16;79.04;98926.63;4935055;29;19977;-60
2022/04/16 07:21:51;;;;;;;;;;;;;;;2.15;78.95;98925.03;4952326;29;19930;-61
2022/04/16 07:24:17;;;;;;;;;;;;;;;2.10;78.47;98903.88;4953873;29;19969;-63
2022/04/16 07:26:42;;;;;;;;;;;;;;;2.13;78.45;98936.69;4953575;29;19930;-62
2022/04/16 07:29:08;;;;;;;;;;;;;;;2.09;79.06;98938.03;4953482;29;19942;-62
2022/04/16 07:31:33;;;;;;;;;;;;;;;2.03;78.62;98935.22;4953321;29;19937;-63
2022/04/16 07:33:59;;;;;;;;;;;;;;;2.11;78.57;98926.41;4940516;29;19934;-61
2022/04/16 07:36:24;;;;;;;;;;;;;;;2.14;78.70;98954.78;4934300;29;19931;-64
2022/04/16 07:38:49;;;;;;;;;;;;;;;2.04;79.57;98933.41;4916824;29;19927;-63
2022/04/16 07:41:15;;;;;;;;;;;;;;;2.15;79.48;98938.09;4934224;29;20080;-62
2022/04/16 07:43:41;;;;;;;;;;;;;;;2.18;78.12;98950.78;4934345;29;19927;-63
2022/04/16 07:46:06;;;;;;;;;;;;;;;2.16;78.30;98944.13;4901017;29;19930;-64
2022/04/16 07:48:33;;;;;;;;;;;;;;;2.21;79.25;98945.16;4934724;29;19926;-62
2022/04/16 07:50:58;;;;;;;;;;;;;;;2.18;78.59;98942.16;4933846;29;20037;-58
2022/04/16 07:53:23;;;;;;;;;;;;;;;2.23;79.09;98929.28;4934430;29;20025;-60
2022/04/16 07:55:49;;;;;;;;;;;;;;;2.23;78.29;98951.00;4934023;29;19931;-62
2022/04/16 07:58:15;;;;;;;;;;;;;;;2.18;78.83;98940.34;4934327;29;19974;-64
2022/04/16 08:00:40;;;;;;;;;;;;;;;2.18;78.52;98944.75;4933956;29;20038;-60
2022/04/16 08:03:06;;;;;;;;;;;;;;;2.16;78.51;98975.50;4934249;29;19927;-60
2022/04/16 08:05:31;;;;;;;;;;;;;;;2.08;78.48;98980.88;4934168;29;19931;-59
2022/04/16 08:07:57;;;;;;;;;;;;;;;2.07;78.46;98963.59;4934124;29;20372;-60
2022/04/16 08:10:23;;;;;;;;;;;;;;;2.06;79.36;98975.88;4946366;29;20029;-63
2022/04/16 08:12:48;;;;;;;;;;;;;;;2.03;80.27;98960.56;4953347;29;19942;-62
2022/04/16 08:15:14;;;;;;;;;;;;;;;2.10;79.85;98971.06;4952787;29;19930;-61
2022/04/16 08:17:40;;;;;;;;;;;;;;;2.19;80.01;98967.28;4935784;29;19926;-62
2022/04/16 08:20:07;;;;;;;;;;;;;;;2.21;79.01;98960.06;4904411;29;19931;-64
2022/04/16 08:22:34;;;;;;;;;;;;;;;2.20;79.01;98966.28;4953629;28;19926;-63
2022/04/16 08:27:45;;;;;;;;;;;;;;;2.18;78.74;98965.69;4940959;29;19934;-60
2022/04/16 08:30:11;;;;;;;;;;;;;;;2.25;78.71;98971.75;4953933;29;19930;-65
2022/04/16 08:32:37;;;;;;;;;;;;;;;2.22;78.58;98986.00;4956395;29;19973;-63
2022/04/16 08:35:03;;;;;;;;;;;;;;;2.28;79.44;98969.53;4956284;29;19930;-65
2022/04/16 08:37:29;;;;;;;;;;;;;;;2.38;78.81;98984.91;4956665;29;19927;-63
2022/04/16 08:39:54;;;;;;;;;;;;;;;2.23;78.91;98963.28;4956440;29;19937;-63
2022/04/16 08:42:20;;;;;;;;;;;;;;;2.31;78.98;99009.38;4938943;29;19969;-62
2022/04/16 08:44:45;;;;;;;;;;;;;;;2.33;78.29;98992.50;4911759;29;19957;-62
2022/04/16 08:47:11;;;;;;;;;;;;;;;2.18;78.69;98978.75;4937349;29;19934;-64
2022/04/16 08:49:36;;;;;;;;;;;;;;;2.34;78.61;98993.31;4937028;29;20415;-62
2022/04/16 08:52:02;;;;;;;;;;;;;;;2.42;79.59;99012.28;4937640;29;19931;-60
2022/04/16 08:54:28;;;;;;;;;;;;;;;2.32;77.53;99001.34;4937662;29;19938;-61
2022/04/16 08:56:53;;;;;;;;;;;;;;;2.30;77.86;98992.91;4937179;29;19938;-60
2022/04/16 08:59:19;;;;;;;;;;;;;;;2.27;77.97;98993.28;4937707;29;20295;-61
2022/04/16 09:01:44;;;;;;;;;;;;;;;2.36;78.08;98994.72;4939918;28;19935;-61
2022/04/16 09:04:19;;;;;;;;;;;;;;;2.32;77.45;99009.19;4934142;29;19927;-62
2022/04/16 09:06:54;;;;;;;;;;;;;;;2.31;77.32;99025.09;4956336;29;19936;-62
2022/04/16 09:09:20;;;;;;;;;;;;;;;2.27;77.51;99037.75;4910416;29;20438;-62
2022/04/16 09:11:48;;;;;;;;;;;;;;;2.20;77.39;99026.41;4955793;29;20040;-60
2022/04/16 09:14:13;;;;;;;;;;;;;;;2.16;77.97;99062.59;4955238;28;19926;-65
2022/04/16 09:16:39;;;;;;;;;;;;;;;2.19;77.46;99015.16;4954772;29;19930;-63
2022/04/16 09:19:04;;;;;;;;;;;;;;;2.20;77.40;99027.22;4954677;28;20430;-65
2022/04/16 09:21:30;;;;;;;;;;;;;;;2.14;79.13;99016.72;4936440;29;19930;-62
2022/04/16 09:23:59;;;;;;;;;;;;;;;2.26;78.83;99038.72;4932929;29;19927;-61
2022/04/16 09:26:24;;;;;;;;;;;;;;;2.20;78.25;99013.34;4955833;29;19930;-62
2022/04/16 09:28:50;;;;;;;;;;;;;;;2.21;77.19;99030.66;4954814;28;20395;-60
2022/04/16 09:31:16;;;;;;;;;;;;;;;2.26;76.22;99038.72;4954594;29;19931;-59
2022/04/16 09:33:42;;;;;;;;;;;;;;;2.27;75.97;99016.81;4953978;28;19926;-62
2022/04/16 09:36:08;;;;;;;;;;;;;;;2.11;76.73;99030.19;4920376;29;20006;-62
2022/04/16 09:38:37;;;;;;;;;;;;;;;2.31;76.14;99027.69;4944159;28;19969;-63
2022/04/16 09:41:08;;;;;;;;;;;;;;;2.44;76.50;99017.28;4938932;29;19937;-60
2022/04/16 09:43:37;;;;;;;;;;;;;;;2.44;75.00;99039.06;4934543;29;20333;-62
2022/04/16 09:46:08;;;;;;;;;;;;;;;2.45;75.43;99032.00;4937939;29;19970;-61
2022/04/16 09:48:34;;;;;;;;;;;;;;;2.50;74.98;99021.78;4940373;28;20016;-62
2022/04/16 09:50:59;;;;;;;;;;;;;;;2.41;74.71;99036.81;4954087;29;20033;-61
2022/04/16 09:53:25;;;;;;;;;;;;;;;2.42;74.34;99038.44;4932982;28;20421;-62
2022/04/16 09:55:51;;;;;;;;;;;;;;;2.45;74.39;99066.81;4930067;29;20033;-60
2022/04/16 09:58:16;;;;;;;;;;;;;;;2.39;75.18;99072.81;4937485;28;19953;-61
2022/04/16 10:00:42;;;;;;;;;;;;;;;2.44;74.19;99054.75;4940980;29;19930;-64
2022/04/16 10:03:08;;;;;;;;;;;;;;;2.49;74.74;99048.91;4941364;29;19965;-63
2022/04/16 10:05:33;;;;;;;;;;;;;;;2.39;73.67;99082.47;4953020;28;19930;-62
2022/04/16 10:07:59;;;;;;;;;;;;;;;2.30;74.09;99066.13;4939715;29;19927;-62
2022/04/16 10:10:31;;;;;;;;;;;;;;;2.36;75.40;99056.72;4935762;29;20017;-63
2022/04/16 10:13:00;;;;;;;;;;;;;;;2.37;75.87;99069.59;4954459;29;19977;-66
2022/04/16 10:15:38;;;;;;;;;;;;;;;2.37;75.68;99066.16;4930536;29;20300;-64
2022/04/16 10:18:04;;;;;;;;;;;;;;;2.47;75.71;99062.22;4916129;29;20029;-65
2022/04/16 10:20:29;;;;;;;;;;;;;;;2.48;74.02;99079.50;4951748;29;20021;-64
2022/04/16 10:22:55;;;;;;;;;;;;;;;2.42;74.61;99061.97;4934223;29;19927;-66
2022/04/16 10:25:40;;;;;;;;;;;;;;;2.45;73.94;99102.66;4953249;28;19931;-65
2022/04/16 10:28:07;;;;;;;;;;;;;;;2.30;74.97;99071.34;4954505;29;19927;-64
2022/04/16 10:30:39;;;;;;;;;;;;;;;2.40;75.31;99074.44;4946225;28;19966;-65
2022/04/16 10:33:17;;;;;;;;;;;;;;;2.37;75.22;99074.81;4935912;29;19942;-64
2022/04/16 10:35:53;;;;;;;;;;;;;;;2.46;74.22;99080.69;4941245;29;20029;-63
2022/04/16 10:38:26;;;;;;;;;;;;;;;2.48;73.53;99063.81;4942315;28;19927;-62
2022/04/16 10:40:57;;;;;;;;;;;;;;;2.47;74.13;99074.47;4953207;29;20437;-63
2022/04/16 10:43:30;;;;;;;;;;;;;;;2.47;73.79;99070.06;4933787;29;19985;-62
2022/04/16 10:45:56;;;;;;;;;;;;;;;2.47;74.13;99085.75;4948762;28;19931;-63
2022/04/16 10:48:21;;;;;;;;;;;;;;;2.43;73.68;99081.09;4936405;28;19926;-63
2022/04/16 10:50:49;;;;;;;;;;;;;;;2.41;73.40;99091.75;4950316;29;19930;-62
2022/04/16 10:53:15;;;;;;;;;;;;;;;2.46;73.05;99114.72;4902487;28;20293;-60
2022/04/16 10:55:47;;;;;;;;;;;;;;;2.47;73.03;99119.78;4952773;29;19962;-62
2022/04/16 10:58:13;;;;;;;;;;;;;;;2.50;73.03;99108.13;4943694;28;19931;-61
2022/04/16 11:00:45;;;;;;;;;;;;;;;2.51;73.31;99101.88;4939439;29;19936;-63
2022/04/16 11:03:17;;;;;;;;;;;;;;;2.55;72.81;99121.41;4948424;28;19922;-64
2022/04/16 11:05:43;;;;;;;;;;;;;;;2.48;73.01;99117.97;4952383;29;19931;-60
2022/04/16 11:08:13;;;;;;;;;;;;;;;2.45;73.75;99113.91;4936126;29;19985;-61
2022/04/16 11:10:40;;;;;;;;;;;;;;;2.44;73.44;99145.47;4949461;29;20415;-64
2022/04/16 11:13:05;;;;;;;;;;;;;;;2.58;72.59;99128.88;4928812;29;20392;-63
2022/04/16 11:15:31;;;;;;;;;;;;;;;2.52;72.42;99116.56;4953199;29;19938;-62
2022/04/16 11:17:57;;;;;;;;;;;;;;;2.43;72.12;99115.91;4951415;29;20376;-62
2022/04/16 11:20:23;;;;;;;;;;;;;;;2.53;72.37;99112.97;4936068;29;19930;-62
2022/04/16 11:22:49;;;;;;;;;;;;;;;2.69;72.50;99119.69;4952133;29;20058;-61
2022/04/16 11:25:14;;;;;;;;;;;;;;;2.65;72.67;99118.47;4953359;28;20396;-61
2022/04/16 11:35:57;;;;;;;;;;;;;;;2.59;71.89;99142.75;4936263;29;20439;-61
2022/04/16 11:38:30;;;;;;;;;;;;;;;2.52;72.81;99209.94;4951190;28;20013;-60
2022/04/16 11:41:00;;;;;;;;;;;;;;;2.47;72.23;99161.63;4935196;29;20363;-60
2022/04/16 11:43:28;;;;;;;;;;;;;;;2.62;72.42;99147.63;4948816;28;19973;-60
2022/04/16 11:45:55;;;;;;;;;;;;;;;2.60;71.27;99181.84;4935982;29;19931;-67
2022/04/16 11:48:21;;;;;;;;;;;;;;;2.60;71.03;99194.13;4953237;28;20048;-65
2022/04/16 11:50:46;;;;;;;;;;;;;;;2.52;70.89;99170.72;4953554;29;20029;-69
2022/04/16 11:53:12;;;;;;;;;;;;;;;2.67;70.73;99187.91;4918740;28;20446;-60
2022/04/16 11:55:47;;;;;;;;;;;;;;;2.77;70.38;99163.22;4952687;28;19954;-61
2022/04/16 11:58:13;;;;;;;;;;;;;;;2.69;71.11;99177.28;4952982;28;19977;-65
2022/04/16 12:00:48;;;;;;;;;;;;;;;2.60;72.92;99176.59;4944321;29;20324;-62
2022/04/16 12:03:14;;;;;;;;;;;;;;;2.65;73.55;99196.97;4938257;28;19923;-63
2022/04/16 12:05:42;;;;;;;;;;;;;;;2.60;73.56;99179.22;4956140;29;19953;-62
2022/04/16 12:08:09;;;;;;;;;;;;;;;2.63;73.86;99194.53;4940840;29;20367;-63
2022/04/16 12:10:35;;;;;;;;;;;;;;;2.61;73.14;99196.53;4937781;29;19954;-63
2022/04/16 12:13:07;;;;;;;;;;;;;;;2.79;73.10;99200.47;4943821;29;19953;-63
2022/04/16 12:15:33;;;;;;;;;;;;;;;2.72;71.49;99187.34;4954796;28;19977;-62
2022/04/16 12:18:07;;;;;;;;;;;;;;;2.72;71.44;99216.16;4956587;29;20028;-64
2022/04/16 12:20:33;;;;;;;;;;;;;;;2.69;71.89;99209.47;4942257;28;20025;-63
2022/04/16 12:23:00;;;;;;;;;;;;;;;2.78;70.92;99191.81;4938822;29;20447;-61
2022/04/16 12:25:26;;;;;;;;;;;;;;;2.73;70.78;99189.75;4922139;29;20463;-64
2022/04/16 12:27:52;;;;;;;;;;;;;;;2.78;70.11;99204.09;4953145;29;19935;-62
2022/04/16 12:30:18;;;;;;;;;;;;;;;2.76;70.41;99209.53;4954344;28;19957;-62
2022/04/16 12:32:55;;;;;;;;;;;;;;;2.84;69.51;99232.94;4955146;29;20463;-62
2022/04/16 12:35:22;;;;;;;;;;;;;;;2.88;68.75;99230.75;4956512;28;19931;-63
2022/04/16 12:37:48;;;;;;;;;;;;;;;2.82;68.87;99198.28;4943648;29;19937;-66
2022/04/16 12:40:13;;;;;;;;;;;;;;;2.85;68.25;99213.59;4941840;28;19930;-68
2022/04/16 12:42:39;;;;;;;;;;;;;;;2.78;69.04;99225.03;4944047;29;19923;-63
2022/04/16 12:45:05;;;;;;;;;;;;;;;2.82;69.00;99224.47;4955934;28;20400;-64
2022/04/16 12:47:31;;;;;;;;;;;;;;;2.82;69.28;99234.94;4956202;29;19973;-61
2022/04/16 12:49:57;;;;;;;;;;;;;;;3.00;69.83;99216.13;4938695;29;20403;-65
2022/04/16 12:52:24;;;;;;;;;;;;;;;3.04;69.25;99233.06;4953623;29;20017;-62
2022/04/16 12:54:50;;;;;;;;;;;;;;;2.90;69.04;99231.38;4935364;29;20460;-63
2022/04/16 12:57:15;;;;;;;;;;;;;;;2.84;69.65;99235.56;4939680;29;20017;-64
2022/04/16 12:59:41;;;;;;;;;;;;;;;2.91;70.29;99219.88;4941185;28;19984;-61
2022/04/16 13:02:06;;;;;;;;;;;;;;;2.91;69.96;99227.75;4949790;29;19934;-63
2022/04/16 13:04:33;;;;;;;;;;;;;;;2.98;69.71;99215.50;4939946;28;19950;-62
2022/04/16 13:06:58;;;;;;;;;;;;;;;3.07;70.40;99221.41;4955312;28;19934;-63
2022/04/16 13:09:24;;;;;;;;;;;;;;;3.11;69.22;99214.78;4955479;28;19932;-61
2022/04/16 13:11:51;;;;;;;;;;;;;;;3.05;69.47;99232.06;4953853;29;19930;-62
2022/04/16 13:14:17;;;;;;;;;;;;;;;2.96;70.15;99231.41;4938878;28;20017;-63
2022/04/16 13:16:42;;;;;;;;;;;;;;;3.07;69.50;99226.66;4937050;29;20033;-63